sensor_id;sensor_type;location;lat;lon;timestamp;pressure;altitude;pressure_sealevel;temperature;humidity
21129;BME280;10722;51.910;8.352;2023-10-08T00:02:27;101298.94;;;18.04;95.11
21129;BME280;10722;51.910;8.352;2023-10-08T00:05:13;101297.22;;;18.00;95.19
21129;BME280;10722;51.910;8.352;2023-10-08T00:07:57;101302.50;;;17.94;95.38
21129;BME280;10722;51.910;8.352;2023-10-08T00:10:43;101306.78;;;18.10;95.29
21129;BME280;10722;51.910;8.352;2023-10-08T00:13:28;101302.47;;;18.03;95.28
21129;BME280;10722;51.910;8.352;2023-10-08T00:16:13;101303.28;;;18.14;94.70
21129;BME280;10722;51.910;8.352;2023-10-08T00:18:59;101317.22;;;18.13;94.70
21129;BME280;10722;51.910;8.352;2023-10-08T00:21:44;101318.09;;;18.15;94.83
21129;BME280;10722;51.910;8.352;2023-10-08T00:24:29;101311.97;;;18.21;94.23
21129;BME280;10722;51.910;8.352;2023-10-08T00:27:14;101314.59;;;18.21;94.09
21129;BME280;10722;51.910;8.352;2023-10-08T00:29:59;101317.25;;;18.10;94.37
21129;BME280;10722;51.910;8.352;2023-10-08T00:32:44;101319.88;;;18.10;94.50
21129;BME280;10722;51.910;8.352;2023-10-08T00:35:30;101316.34;;;18.20;94.25
21129;BME280;10722;51.910;8.352;2023-10-08T00:38:15;101312.03;;;18.07;94.36
21129;BME280;10722;51.910;8.352;2023-10-08T00:41:00;101316.34;;;18.19;94.48
21129;BME280;10722;51.910;8.352;2023-10-08T00:43:45;101317.19;;;18.25;93.98
21129;BME280;10722;51.910;8.352;2023-10-08T00:46:30;101329.44;;;18.20;93.70
21129;BME280;10722;51.910;8.352;2023-10-08T00:49:23;101337.25;;;18.29;94.21
21129;BME280;10722;51.910;8.352;2023-10-08T00:52:12;101331.19;;;18.23;94.20
21129;BME280;10722;51.910;8.352;2023-10-08T00:54:58;101336.38;;;18.24;93.95
21129;BME280;10722;51.910;8.352;2023-10-08T00:57:44;101347.78;;;18.12;94.42
21129;BME280;10722;51.910;8.352;2023-10-08T01:00:29;101355.63;;;18.22;94.51
21129;BME280;10722;51.910;8.352;2023-10-08T01:03:14;101352.16;;;18.12;94.70
21129;BME280;10722;51.910;8.352;2023-10-08T01:06:00;101359.16;;;18.08;95.09
21129;BME280;10722;51.910;8.352;2023-10-08T01:08:46;101366.13;;;18.12;95.27
21129;BME280;10722;51.910;8.352;2023-10-08T01:11:31;101377.47;;;18.16;95.12
21129;BME280;10722;51.910;8.352;2023-10-08T01:14:17;101383.53;;;18.21;95.42
21129;BME280;10722;51.910;8.352;2023-10-08T01:17:02;101374.03;;;18.05;96.48
21129;BME280;10722;51.910;8.352;2023-10-08T01:19:47;101385.38;;;18.02;97.19
21129;BME280;10722;51.910;8.352;2023-10-08T01:22:32;101390.59;;;17.93;97.83
21129;BME280;10722;51.910;8.352;2023-10-08T01:25:17;101396.72;;;17.90;98.79
21129;BME280;10722;51.910;8.352;2023-10-08T01:28:02;101396.75;;;17.89;99.21
21129;BME280;10722;51.910;8.352;2023-10-08T01:30:47;101378.41;;;17.72;99.84
21129;BME280;10722;51.910;8.352;2023-10-08T01:33:33;101393.28;;;17.82;100.00
21129;BME280;10722;51.910;8.352;2023-10-08T01:36:17;101388.00;;;17.78;100.00
21129;BME280;10722;51.910;8.352;2023-10-08T01:39:02;101380.16;;;17.72;100.00
21129;BME280;10722;51.910;8.352;2023-10-08T01:41:47;101386.25;;;17.70;100.00
21129;BME280;10722;51.910;8.352;2023-10-08T01:44:32;101400.22;;;17.45;100.00
21129;BME280;10722;51.910;8.352;2023-10-08T01:47:18;101413.31;;;17.56;100.00
21129;BME280;10722;51.910;8.352;2023-10-08T01:50:03;101411.56;;;17.62;100.00
21129;BME280;10722;51.910;8.352;2023-10-08T01:52:48;101400.22;;;17.76;100.00
21129;BME280;10722;51.910;8.352;2023-10-08T01:55:33;101415.06;;;17.84;100.00
21129;BME280;10722;51.910;8.352;2023-10-08T01:58:18;101438.56;;;17.17;100.00
21129;BME280;10722;51.910;8.352;2023-10-08T02:01:06;101447.84;;;16.36;100.00
21129;BME280;10722;51.910;8.352;2023-10-08T02:03:51;101482.44;;;16.03;100.00
21129;BME280;10722;51.910;8.352;2023-10-08T02:06:36;101499.31;;;15.44;100.00
21129;BME280;10722;51.910;8.352;2023-10-08T02:09:21;101484.00;;;14.96;100.00
21129;BME280;10722;51.910;8.352;2023-10-08T02:12:06;101483.84;;;14.82;100.00
21129;BME280;10722;51.910;8.352;2023-10-08T02:14:52;101484.50;;;14.64;100.00
21129;BME280;10722;51.910;8.352;2023-10-08T02:17:37;101488.44;;;14.38;100.00
21129;BME280;10722;51.910;8.352;2023-10-08T02:20:22;101461.25;;;14.17;100.00
21129;BME280;10722;51.910;8.352;2023-10-08T02:23:07;101484.50;;;14.06;100.00
21129;BME280;10722;51.910;8.352;2023-10-08T02:25:52;101465.34;;;14.01;100.00
21129;BME280;10722;51.910;8.352;2023-10-08T02:28:37;101463.38;;;13.86;100.00
21129;BME280;10722;51.910;8.352;2023-10-08T02:31:22;101454.78;;;13.90;100.00
21129;BME280;10722;51.910;8.352;2023-10-08T02:34:07;101452.84;;;13.79;100.00
21129;BME280;10722;51.910;8.352;2023-10-08T02:36:52;101446.66;;;13.71;100.00
21129;BME280;10722;51.910;8.352;2023-10-08T02:39:37;101454.41;;;13.67;100.00
21129;BME280;10722;51.910;8.352;2023-10-08T02:42:22;101513.59;;;13.81;100.00
21129;BME280;10722;51.910;8.352;2023-10-08T02:45:07;101496.59;;;14.03;100.00
21129;BME280;10722;51.910;8.352;2023-10-08T02:47:56;101442.53;;;13.83;100.00
21129;BME280;10722;51.910;8.352;2023-10-08T02:50:42;101468.56;;;13.85;100.00
21129;BME280;10722;51.910;8.352;2023-10-08T02:53:27;101490.84;;;13.69;100.00
21129;BME280;10722;51.910;8.352;2023-10-08T02:56:13;101526.34;;;13.67;100.00
21129;BME280;10722;51.910;8.352;2023-10-08T02:58:59;101516.97;;;13.75;100.00
21129;BME280;10722;51.910;8.352;2023-10-08T03:01:44;101461.81;;;13.44;100.00
21129;BME280;10722;51.910;8.352;2023-10-08T03:04:29;101438.38;;;13.41;100.00
21129;BME280;10722;51.910;8.352;2023-10-08T03:07:15;101459.22;;;13.44;100.00
21129;BME280;10722;51.910;8.352;2023-10-08T03:10:00;101514.78;;;13.50;100.00
21129;BME280;10722;51.910;8.352;2023-10-08T03:12:46;101532.16;;;13.52;100.00
21129;BME280;10722;51.910;8.352;2023-10-08T03:15:31;101549.44;;;13.50;100.00
21129;BME280;10722;51.910;8.352;2023-10-08T03:18:17;101531.09;;;13.42;100.00
21129;BME280;10722;51.910;8.352;2023-10-08T03:21:03;101532.13;;;13.51;100.00
21129;BME280;10722;51.910;8.352;2023-10-08T03:23:49;101517.38;;;13.51;100.00
21129;BME280;10722;51.910;8.352;2023-10-08T03:26:34;101503.38;;;13.43;100.00
21129;BME280;10722;51.910;8.352;2023-10-08T03:29:20;101503.19;;;13.32;100.00
21129;BME280;10722;51.910;8.352;2023-10-08T03:32:04;101529.16;;;13.31;100.00
21129;BME280;10722;51.910;8.352;2023-10-08T03:34:50;101537.03;;;13.35;100.00
21129;BME280;10722;51.910;8.352;2023-10-08T03:37:36;101553.25;;;13.25;100.00
21129;BME280;10722;51.910;8.352;2023-10-08T03:40:21;101559.63;;;13.39;100.00
21129;BME280;10722;51.910;8.352;2023-10-08T03:43:06;101549.41;;;13.49;100.00
21129;BME280;10722;51.910;8.352;2023-10-08T03:45:51;101560.69;;;13.49;100.00
21129;BME280;10722;51.910;8.352;2023-10-08T03:48:36;101558.91;;;13.47;100.00
21129;BME280;10722;51.910;8.352;2023-10-08T03:51:21;101546.53;;;13.33;100.00
21129;BME280;10722;51.910;8.352;2023-10-08T03:54:07;101567.47;;;13.42;100.00
21129;BME280;10722;51.910;8.352;2023-10-08T03:56:52;101562.66;;;13.18;100.00
21129;BME280;10722;51.910;8.352;2023-10-08T03:59:37;101560.81;;;13.14;100.00
21129;BME280;10722;51.910;8.352;2023-10-08T04:02:22;101580.78;;;13.15;100.00
21129;BME280;10722;51.910;8.352;2023-10-08T04:05:07;101585.09;;;13.15;100.00
21129;BME280;10722;51.910;8.352;2023-10-08T04:07:53;101568.16;;;12.91;100.00
21129;BME280;10722;51.910;8.352;2023-10-08T04:10:38;101581.94;;;12.89;100.00
21129;BME280;10722;51.910;8.352;2023-10-08T04:13:23;101595.78;;;12.88;100.00
21129;BME280;10722;51.910;8.352;2023-10-08T04:16:08;101579.41;;;12.52;100.00
21129;BME280;10722;51.910;8.352;2023-10-08T04:18:57;101590.69;;;12.53;100.00
21129;BME280;10722;51.910;8.352;2023-10-08T04:21:42;101587.91;;;12.47;100.00
21129;BME280;10722;51.910;8.352;2023-10-08T04:24:27;101583.63;;;12.47;100.00
21129;BME280;10722;51.910;8.352;2023-10-08T04:27:11;101601.78;;;12.47;100.00
21129;BME280;10722;51.910;8.352;2023-10-08T04:29:57;101600.94;;;12.48;100.00
21129;BME280;10722;51.910;8.352;2023-10-08T04:32:42;101583.22;;;12.30;100.00
21129;BME280;10722;51.910;8.352;2023-10-08T04:35:27;101589.28;;;12.31;100.00
21129;BME280;10722;51.910;8.352;2023-10-08T04:38:12;101593.59;;;12.30;100.00
21129;BME280;10722;51.910;8.352;2023-10-08T04:40:57;101600.53;;;12.31;100.00
21129;BME280;10722;51.910;8.352;2023-10-08T04:43:42;101589.22;;;12.28;100.00
21129;BME280;10722;51.910;8.352;2023-10-08T04:46:27;101599.19;;;12.13;100.00
21129;BME280;10722;51.910;8.352;2023-10-08T04:49:19;101596.88;;;11.88;100.00
21129;BME280;10722;51.910;8.352;2023-10-08T04:52:06;101597.91;;;11.95;100.00
21129;BME280;10722;51.910;8.352;2023-10-08T04:54:52;101619.16;;;12.15;100.00
21129;BME280;10722;51.910;8.352;2023-10-08T04:57:37;101613.47;;;11.95;100.00
21129;BME280;10722;51.910;8.352;2023-10-08T05:00:22;101606.59;;;11.97;100.00
21129;BME280;10722;51.910;8.352;2023-10-08T05:03:07;101620.22;;;11.90;100.00
21129;BME280;10722;51.910;8.352;2023-10-08T05:05:52;101625.91;;;12.08;100.00
21129;BME280;10722;51.910;8.352;2023-10-08T05:08:38;101654.22;;;12.01;100.00
21129;BME280;10722;51.910;8.352;2023-10-08T05:11:23;101670.31;;;12.21;100.00
21129;BME280;10722;51.910;8.352;2023-10-08T05:14:08;101671.97;;;12.19;100.00
21129;BME280;10722;51.910;8.352;2023-10-08T05:16:58;101691.28;;;12.28;100.00
21129;BME280;10722;51.910;8.352;2023-10-08T05:19:43;101690.59;;;12.36;100.00
21129;BME280;10722;51.910;8.352;2023-10-08T05:22:28;101689.31;;;12.20;100.00
21129;BME280;10722;51.910;8.352;2023-10-08T05:25:13;101693.50;;;12.15;100.00
21129;BME280;10722;51.910;8.352;2023-10-08T05:27:58;101686.03;;;12.27;100.00
21129;BME280;10722;51.910;8.352;2023-10-08T05:30:43;101679.47;;;12.40;100.00
21129;BME280;10722;51.910;8.352;2023-10-08T05:33:28;101680.94;;;12.30;100.00
21129;BME280;10722;51.910;8.352;2023-10-08T05:36:13;101708.38;;;12.22;100.00
21129;BME280;10722;51.910;8.352;2023-10-08T05:38:58;101712.25;;;12.36;100.00
21129;BME280;10722;51.910;8.352;2023-10-08T05:41:44;101717.50;;;12.39;100.00
21129;BME280;10722;51.910;8.352;2023-10-08T05:44:29;101701.16;;;12.43;100.00
21129;BME280;10722;51.910;8.352;2023-10-08T05:47:14;101688.72;;;12.30;100.00
21129;BME280;10722;51.910;8.352;2023-10-08T05:50:00;101693.75;;;12.24;100.00
21129;BME280;10722;51.910;8.352;2023-10-08T05:52:47;101696.41;;;12.27;100.00
21129;BME280;10722;51.910;8.352;2023-10-08T05:55:32;101695.03;;;12.06;100.00
21129;BME280;10722;51.910;8.352;2023-10-08T05:58:17;101686.69;;;12.18;100.00
21129;BME280;10722;51.910;8.352;2023-10-08T06:01:02;101705.03;;;12.26;100.00
21129;BME280;10722;51.910;8.352;2023-10-08T06:03:48;101698.94;;;12.24;100.00
21129;BME280;10722;51.910;8.352;2023-10-08T06:06:33;101713.69;;;12.25;100.00
21129;BME280;10722;51.910;8.352;2023-10-08T06:09:18;101723.22;;;12.27;100.00
21129;BME280;10722;51.910;8.352;2023-10-08T06:12:03;101740.16;;;12.13;100.00
21129;BME280;10722;51.910;8.352;2023-10-08T06:14:48;101752.53;;;12.23;100.00
21129;BME280;10722;51.910;8.352;2023-10-08T06:17:35;101753.09;;;12.11;100.00
21129;BME280;10722;51.910;8.352;2023-10-08T06:20:21;101758.81;;;12.00;100.00
21129;BME280;10722;51.910;8.352;2023-10-08T06:23:06;101762.47;;;12.06;100.00
21129;BME280;10722;51.910;8.352;2023-10-08T06:25:52;101771.03;;;12.04;100.00
21129;BME280;10722;51.910;8.352;2023-10-08T06:28:39;101779.50;;;11.98;100.00
21129;BME280;10722;51.910;8.352;2023-10-08T06:31:24;101769.00;;;11.94;100.00
21129;BME280;10722;51.910;8.352;2023-10-08T06:34:10;101783.16;;;12.05;100.00
21129;BME280;10722;51.910;8.352;2023-10-08T06:36:58;101794.00;;;12.22;100.00
21129;BME280;10722;51.910;8.352;2023-10-08T06:39:43;101788.94;;;12.26;100.00
21129;BME280;10722;51.910;8.352;2023-10-08T06:42:28;101783.91;;;12.31;100.00
21129;BME280;10722;51.910;8.352;2023-10-08T06:45:13;101779.66;;;12.03;100.00
21129;BME280;10722;51.910;8.352;2023-10-08T06:47:57;101794.34;;;12.02;100.00
21129;BME280;10722;51.910;8.352;2023-10-08T06:50:48;101801.19;;;12.00;100.00
21129;BME280;10722;51.910;8.352;2023-10-08T06:53:34;101802.81;;;11.97;100.00
21129;BME280;10722;51.910;8.352;2023-10-08T06:56:19;101793.03;;;11.88;100.00
21129;BME280;10722;51.910;8.352;2023-10-08T06:59:04;101814.88;;;11.96;100.00
21129;BME280;10722;51.910;8.352;2023-10-08T07:01:49;101829.50;;;11.93;100.00
21129;BME280;10722;51.910;8.352;2023-10-08T07:04:35;101823.59;;;11.98;100.00
21129;BME280;10722;51.910;8.352;2023-10-08T07:07:20;101831.03;;;12.16;100.00
21129;BME280;10722;51.910;8.352;2023-10-08T07:10:06;101831.25;;;12.24;100.00
21129;BME280;10722;51.910;8.352;2023-10-08T07:12:51;101856.88;;;12.42;100.00
21129;BME280;10722;51.910;8.352;2023-10-08T07:15:36;101863.00;;;12.45;100.00
21129;BME280;10722;51.910;8.352;2023-10-08T07:18:22;101840.22;;;12.35;100.00
21129;BME280;10722;51.910;8.352;2023-10-08T07:21:07;101829.34;;;12.48;100.00
21129;BME280;10722;51.910;8.352;2023-10-08T07:23:52;101829.34;;;12.48;100.00
21129;BME280;10722;51.910;8.352;2023-10-08T07:26:37;101834.13;;;12.65;100.00
21129;BME280;10722;51.910;8.352;2023-10-08T07:29:22;101807.31;;;12.66;100.00
21129;BME280;10722;51.910;8.352;2023-10-08T07:32:08;101787.03;;;12.51;100.00
21129;BME280;10722;51.910;8.352;2023-10-08T07:34:53;101799.47;;;12.31;100.00
21129;BME280;10722;51.910;8.352;2023-10-08T07:37:38;101807.41;;;12.05;100.00
21129;BME280;10722;51.910;8.352;2023-10-08T07:40:23;101806.63;;;12.09;100.00
21129;BME280;10722;51.910;8.352;2023-10-08T07:43:08;101812.59;;;12.05;100.00
21129;BME280;10722;51.910;8.352;2023-10-08T07:45:53;101818.38;;;11.97;100.00
21129;BME280;10722;51.910;8.352;2023-10-08T07:48:39;101819.78;;;11.85;100.00
21129;BME280;10722;51.910;8.352;2023-10-08T07:51:24;101838.38;;;11.74;100.00
21129;BME280;10722;51.910;8.352;2023-10-08T07:54:09;101848.31;;;11.85;100.00
21129;BME280;10722;51.910;8.352;2023-10-08T07:56:56;101860.47;;;11.88;100.00
21129;BME280;10722;51.910;8.352;2023-10-08T07:59:42;101874.25;;;11.87;100.00
21129;BME280;10722;51.910;8.352;2023-10-08T08:02:27;101881.19;;;11.88;100.00
21129;BME280;10722;51.910;8.352;2023-10-08T08:05:13;101899.66;;;11.97;100.00
21129;BME280;10722;51.910;8.352;2023-10-08T08:07:58;101887.31;;;11.90;100.00
21129;BME280;10722;51.910;8.352;2023-10-08T08:10:44;101881.03;;;11.83;100.00
21129;BME280;10722;51.910;8.352;2023-10-08T08:13:29;101895.19;;;11.93;100.00
21129;BME280;10722;51.910;8.352;2023-10-08T08:16:15;101889.38;;;12.00;100.00
21129;BME280;10722;51.910;8.352;2023-10-08T08:19:00;101884.44;;;12.09;100.00
21129;BME280;10722;51.910;8.352;2023-10-08T08:21:45;101846.41;;;12.08;100.00
21129;BME280;10722;51.910;8.352;2023-10-08T08:24:30;101863.38;;;11.99;100.00
21129;BME280;10722;51.910;8.352;2023-10-08T08:27:15;101870.25;;;11.97;100.00
21129;BME280;10722;51.910;8.352;2023-10-08T08:30:00;101868.63;;;12.00;100.00
21129;BME280;10722;51.910;8.352;2023-10-08T08:32:46;101880.03;;;12.05;100.00
21129;BME280;10722;51.910;8.352;2023-10-08T08:35:35;101880.75;;;12.01;100.00
21129;BME280;10722;51.910;8.352;2023-10-08T08:38:21;101885.13;;;12.02;100.00
21129;BME280;10722;51.910;8.352;2023-10-08T08:41:06;101903.16;;;11.99;100.00
21129;BME280;10722;51.910;8.352;2023-10-08T08:43:53;101917.06;;;12.01;100.00
21129;BME280;10722;51.910;8.352;2023-10-08T08:46:38;101922.84;;;11.93;100.00
21129;BME280;10722;51.910;8.352;2023-10-08T08:49:23;101929.75;;;11.92;100.00
21129;BME280;10722;51.910;8.352;2023-10-08T08:52:10;101930.97;;;12.03;100.00
21129;BME280;10722;51.910;8.352;2023-10-08T08:54:55;101928.19;;;11.97;100.00
21129;BME280;10722;51.910;8.352;2023-10-08T08:57:46;101929.44;;;12.10;100.00
21129;BME280;10722;51.910;8.352;2023-10-08T09:00:32;101926.84;;;11.83;100.00
21129;BME280;10722;51.910;8.352;2023-10-08T09:03:17;101906.69;;;12.01;100.00
21129;BME280;10722;51.910;8.352;2023-10-08T09:06:03;101901.19;;;12.19;100.00
21129;BME280;10722;51.910;8.352;2023-10-08T09:08:48;101910.88;;;12.25;100.00
21129;BME280;10722;51.910;8.352;2023-10-08T09:11:32;101914.19;;;12.21;100.00
21129;BME280;10722;51.910;8.352;2023-10-08T09:14:22;101925.25;;;12.14;100.00
21129;BME280;10722;51.910;8.352;2023-10-08T09:17:08;101937.38;;;12.16;100.00
21129;BME280;10722;51.910;8.352;2023-10-08T09:19:53;101939.88;;;12.11;100.00
21129;BME280;10722;51.910;8.352;2023-10-08T09:22:38;101916.09;;;12.26;100.00
21129;BME280;10722;51.910;8.352;2023-10-08T09:25:23;101894.50;;;12.57;100.00
21129;BME280;10722;51.910;8.352;2023-10-08T09:28:09;101893.28;;;12.76;100.00
21129;BME280;10722;51.910;8.352;2023-10-08T09:30:54;101864.84;;;12.81;100.00
21129;BME280;10722;51.910;8.352;2023-10-08T09:33:40;101846.75;;;12.84;100.00
21129;BME280;10722;51.910;8.352;2023-10-08T09:36:26;101851.94;;;12.84;100.00
21129;BME280;10722;51.910;8.352;2023-10-08T09:39:12;101855.25;;;12.78;100.00
21129;BME280;10722;51.910;8.352;2023-10-08T09:41:57;101831.91;;;12.80;100.00
21129;BME280;10722;51.910;8.352;2023-10-08T09:44:42;101844.38;;;12.93;100.00
21129;BME280;10722;51.910;8.352;2023-10-08T09:47:30;101851.88;;;13.16;100.00
21129;BME280;10722;51.910;8.352;2023-10-08T09:50:20;101856.59;;;13.29;98.87
21129;BME280;10722;51.910;8.352;2023-10-08T09:53:13;101834.00;;;13.27;96.67
21129;BME280;10722;51.910;8.352;2023-10-08T09:55:59;101818.78;;;13.09;95.63
21129;BME280;10722;51.910;8.352;2023-10-08T09:58:47;101826.91;;;13.21;95.69
21129;BME280;10722;51.910;8.352;2023-10-08T10:01:32;101833.34;;;13.37;95.14
21129;BME280;10722;51.910;8.352;2023-10-08T10:04:26;101848.75;;;13.65;93.91
21129;BME280;10722;51.910;8.352;2023-10-08T10:07:12;101830.16;;;13.88;92.12
21129;BME280;10722;51.910;8.352;2023-10-08T10:09:58;101820.91;;;14.01;90.40
21129;BME280;10722;51.910;8.352;2023-10-08T10:12:44;101804.38;;;13.99;89.55
21129;BME280;10722;51.910;8.352;2023-10-08T10:15:31;101776.56;;;13.96;88.11
21129;BME280;10722;51.910;8.352;2023-10-08T10:23:56;101801.44;;;14.24;87.73
21129;BME280;10722;51.910;8.352;2023-10-08T10:26:42;101792.25;;;14.43;87.04
21129;BME280;10722;51.910;8.352;2023-10-08T10:29:27;101793.94;;;14.41;86.06
21129;BME280;10722;51.910;8.352;2023-10-08T10:32:12;101800.50;;;14.21;86.39
21129;BME280;10722;51.910;8.352;2023-10-08T10:34:58;101780.59;;;14.23;85.60
21129;BME280;10722;51.910;8.352;2023-10-08T10:37:43;101769.59;;;13.94;85.58
21129;BME280;10722;51.910;8.352;2023-10-08T10:40:28;101789.19;;;13.76;86.71
21129;BME280;10722;51.910;8.352;2023-10-08T10:43:12;101803.78;;;13.71;87.32
21129;BME280;10722;51.910;8.352;2023-10-08T10:46:01;101819.50;;;13.74;87.80
21129;BME280;10722;51.910;8.352;2023-10-08T10:48:46;101821.59;;;13.92;87.91
21129;BME280;10722;51.910;8.352;2023-10-08T10:51:33;101814.53;;;13.86;87.11
21129;BME280;10722;51.910;8.352;2023-10-08T10:54:18;101829.16;;;13.81;87.23
21129;BME280;10722;51.910;8.352;2023-10-08T10:57:06;101828.94;;;13.71;87.01
21129;BME280;10722;51.910;8.352;2023-10-08T10:59:51;101823.97;;;13.81;87.05
21129;BME280;10722;51.910;8.352;2023-10-08T11:02:36;101823.81;;;14.16;86.80
21129;BME280;10722;51.910;8.352;2023-10-08T11:05:23;101811.34;;;14.42;86.05
21129;BME280;10722;51.910;8.352;2023-10-08T11:08:08;101798.31;;;14.42;85.15
21129;BME280;10722;51.910;8.352;2023-10-08T11:10:55;101798.94;;;14.74;84.71
21129;BME280;10722;51.910;8.352;2023-10-08T11:13:39;101762.59;;;14.35;82.85
21129;BME280;10722;51.910;8.352;2023-10-08T11:16:24;101751.63;;;14.06;82.67
21129;BME280;10722;51.910;8.352;2023-10-08T11:19:10;101763.56;;;13.95;82.85
21129;BME280;10722;51.910;8.352;2023-10-08T11:21:56;101784.31;;;13.92;83.79
21129;BME280;10722;51.910;8.352;2023-10-08T11:24:41;101794.84;;;13.98;83.98
21129;BME280;10722;51.910;8.352;2023-10-08T11:27:27;101804.59;;;14.08;84.17
21129;BME280;10722;51.910;8.352;2023-10-08T11:30:14;101768.97;;;14.05;82.81
21129;BME280;10722;51.910;8.352;2023-10-08T11:33:00;101804.50;;;14.05;82.93
21129;BME280;10722;51.910;8.352;2023-10-08T11:36:00;101785.53;;;14.09;82.26
21129;BME280;10722;51.910;8.352;2023-10-08T11:38:46;101792.53;;;14.11;82.01
21129;BME280;10722;51.910;8.352;2023-10-08T11:41:31;101789.03;;;14.11;81.88
21129;BME280;10722;51.910;8.352;2023-10-08T11:44:16;101770.78;;;14.08;81.28
21129;BME280;10722;51.910;8.352;2023-10-08T11:47:02;101777.38;;;13.92;81.53
21129;BME280;10722;51.910;8.352;2023-10-08T11:49:47;101787.75;;;13.90;82.40
21129;BME280;10722;51.910;8.352;2023-10-08T11:52:33;101792.19;;;13.95;82.77
21129;BME280;10722;51.910;8.352;2023-10-08T11:55:18;101786.22;;;14.02;82.54
21129;BME280;10722;51.910;8.352;2023-10-08T11:58:06;101789.13;;;14.16;82.29
21129;BME280;10722;51.910;8.352;2023-10-08T12:00:51;101762.47;;;13.85;81.58
21129;BME280;10722;51.910;8.352;2023-10-08T12:03:36;101778.66;;;13.70;82.23
21129;BME280;10722;51.910;8.352;2023-10-08T12:06:22;101789.22;;;13.79;82.77
21129;BME280;10722;51.910;8.352;2023-10-08T12:09:07;101799.19;;;13.99;82.88
21129;BME280;10722;51.910;8.352;2023-10-08T12:11:52;101800.97;;;14.01;82.97
21129;BME280;10722;51.910;8.352;2023-10-08T12:14:37;101801.31;;;14.17;83.32
21129;BME280;10722;51.910;8.352;2023-10-08T12:17:22;101773.03;;;13.93;82.49
21129;BME280;10722;51.910;8.352;2023-10-08T12:20:07;101770.22;;;13.80;82.08
21129;BME280;10722;51.910;8.352;2023-10-08T12:22:52;101777.34;;;13.90;82.64
21129;BME280;10722;51.910;8.352;2023-10-08T12:25:37;101759.00;;;13.84;82.10
21129;BME280;10722;51.910;8.352;2023-10-08T12:28:23;101756.78;;;13.62;82.17
21129;BME280;10722;51.910;8.352;2023-10-08T12:31:09;101744.88;;;13.72;81.74
21129;BME280;10722;51.910;8.352;2023-10-08T12:33:54;101740.25;;;13.58;81.56
21129;BME280;10722;51.910;8.352;2023-10-08T12:36:39;101733.41;;;13.62;81.67
21129;BME280;10722;51.910;8.352;2023-10-08T12:39:24;101736.34;;;13.79;82.15
21129;BME280;10722;51.910;8.352;2023-10-08T12:42:09;101742.97;;;14.05;82.03
21129;BME280;10722;51.910;8.352;2023-10-08T12:44:54;101715.16;;;14.03;81.21
21129;BME280;10722;51.910;8.352;2023-10-08T12:47:39;101713.44;;;14.03;80.91
21129;BME280;10722;51.910;8.352;2023-10-08T12:50:25;101709.19;;;14.10;81.25
21129;BME280;10722;51.910;8.352;2023-10-08T12:53:10;101719.03;;;14.25;81.11
21129;BME280;10722;51.910;8.352;2023-10-08T12:55:55;101690.94;;;14.07;80.20
21129;BME280;10722;51.910;8.352;2023-10-08T12:58:41;101694.94;;;14.37;80.07
21129;BME280;10722;51.910;8.352;2023-10-08T13:01:27;101699.59;;;15.08;79.79
21129;BME280;10722;51.910;8.352;2023-10-08T13:04:12;101655.44;;;15.88;76.77
21129;BME280;10722;51.910;8.352;2023-10-08T13:06:58;101598.56;;;16.54;73.86
21129;BME280;10722;51.910;8.352;2023-10-08T13:09:43;101564.94;;;17.10;72.05
21129;BME280;10722;51.910;8.352;2023-10-08T13:12:29;101542.81;;;16.55;71.55
21129;BME280;10722;51.910;8.352;2023-10-08T13:15:14;101532.56;;;16.89;70.20
21129;BME280;10722;51.910;8.352;2023-10-08T13:17:59;101508.16;;;16.76;69.05
21129;BME280;10722;51.910;8.352;2023-10-08T13:20:44;101505.47;;;16.72;68.36
21129;BME280;10722;51.910;8.352;2023-10-08T13:23:30;101507.19;;;16.65;67.80
21129;BME280;10722;51.910;8.352;2023-10-08T13:26:15;101554.97;;;16.49;69.29
21129;BME280;10722;51.910;8.352;2023-10-08T13:29:01;101536.75;;;16.53;68.63
21129;BME280;10722;51.910;8.352;2023-10-08T13:31:46;101566.34;;;16.54;69.29
21129;BME280;10722;51.910;8.352;2023-10-08T13:34:32;101576.72;;;16.42;69.52
21129;BME280;10722;51.910;8.352;2023-10-08T13:37:16;101580.34;;;16.65;69.25
21129;BME280;10722;51.910;8.352;2023-10-08T13:40:01;101556.66;;;16.41;68.10
21129;BME280;10722;51.910;8.352;2023-10-08T13:42:47;101555.63;;;16.19;68.08
21129;BME280;10722;51.910;8.352;2023-10-08T13:45:32;101560.75;;;16.06;68.62
21129;BME280;10722;51.910;8.352;2023-10-08T13:48:17;101619.22;;;16.24;70.50
21129;BME280;10722;51.910;8.352;2023-10-08T13:51:03;101590.44;;;16.18;70.12
21129;BME280;10722;51.910;8.352;2023-10-08T13:53:49;101601.09;;;16.42;70.20
21129;BME280;10722;51.910;8.352;2023-10-08T13:56:35;101548.78;;;16.31;68.23
21129;BME280;10722;51.910;8.352;2023-10-08T13:59:20;101553.78;;;16.04;68.57
21129;BME280;10722;51.910;8.352;2023-10-08T14:02:05;101580.69;;;15.95;70.12
21129;BME280;10722;51.910;8.352;2023-10-08T14:04:51;101598.19;;;16.07;70.14
21129;BME280;10722;51.910;8.352;2023-10-08T14:07:36;101608.66;;;16.08;70.52
21129;BME280;10722;51.910;8.352;2023-10-08T14:10:21;101599.19;;;16.23;69.53
21129;BME280;10722;51.910;8.352;2023-10-08T14:13:05;101603.59;;;16.28;69.19
21129;BME280;10722;51.910;8.352;2023-10-08T14:15:50;101588.69;;;16.18;68.68
21129;BME280;10722;51.910;8.352;2023-10-08T14:18:36;101596.59;;;16.26;68.81
21129;BME280;10722;51.910;8.352;2023-10-08T14:21:22;101582.75;;;16.38;68.66
21129;BME280;10722;51.910;8.352;2023-10-08T14:24:07;101587.66;;;15.98;69.39
21129;BME280;10722;51.910;8.352;2023-10-08T14:26:53;101598.88;;;15.90;70.14